Time;durP1;ratioP1;P1;durP2;ratioP2;P2;SDS_P1;SDS_P2;PMS_P1;PMS_P2;Temp;Humidity;BMP_temperature;BMP_pressure;BME280_temperature;BME280_humidity;BME280_pressure;Samples;Min_cycle;Max_cycle;Signal;HPM_P1;HPM_P2
2023/03/09 00:00:44;;;;;;;;;;;3.40;99.90;;;;;;4975289;28;20353;-83
2023/03/09 00:03:15;;;;;;;;;;;1.90;99.90;;;;;;4970570;28;20385;-83
2023/03/09 00:05:42;;;;;;;;;;;1.80;99.90;;;;;;4965049;28;19926;-83
2023/03/09 00:08:07;;;;;;;;;;;3.90;99.90;;;;;;4975817;28;19926;-83
2023/03/09 00:10:33;;;;;;;;;;;1.80;99.90;;;;;;4975315;28;19937;-82
2023/03/09 00:12:58;;;;;;;;;;;1.80;99.90;;;;;;4969799;28;19926;-84
2023/03/09 00:15:24;;;;;;;;;;;1.80;99.90;;;;;;4975559;28;19933;-83
2023/03/09 00:17:49;;;;;;;;;;;1.80;99.90;;;;;;4965822;28;19922;-83
2023/03/09 00:20:18;;;;;;;;;;;1.80;99.90;;;;;;4971367;28;20357;-83
2023/03/09 00:22:51;;;;;;;;;;;1.80;99.90;;;;;;4975423;28;19926;-84
2023/03/09 00:25:17;;;;;;;;;;;1.80;99.90;;;;;;4967315;28;19926;-84
2023/03/09 00:27:42;;;;;;;;;;;1.80;99.90;;;;;;4970297;28;19926;-84
2023/03/09 00:30:09;;;;;;;;;;;1.80;99.90;;;;;;4975972;28;19969;-84
2023/03/09 00:32:35;;;;;;;;;;;1.70;99.90;;;;;;4975790;28;20329;-83
2023/03/09 00:35:00;;;;;;;;;;;1.70;99.90;;;;;;4974813;28;19926;-84
2023/03/09 00:37:26;;;;;;;;;;;1.70;99.90;;;;;;4975669;28;19972;-84
2023/03/09 00:39:51;;;;;;;;;;;1.60;99.90;;;;;;4966083;28;19933;-84
2023/03/09 00:42:17;;;;;;;;;;;1.70;99.90;;;;;;4968939;28;19930;-84
2023/03/09 00:44:42;;;;;;;;;;;1.60;99.90;;;;;;4969887;28;19962;-84
2023/03/09 00:47:08;;;;;;;;;;;1.50;99.90;;;;;;4968302;28;19960;-83
2023/03/09 00:49:33;;;;;;;;;;;1.50;99.90;;;;;;4974039;28;19930;-84
2023/03/09 00:51:59;;;;;;;;;;;1.40;99.90;;;;;;4975648;28;19926;-84
2023/03/09 00:54:24;;;;;;;;;;;1.50;99.90;;;;;;4975449;28;20334;-84
2023/03/09 00:56:50;;;;;;;;;;;1.40;99.90;;;;;;4974797;28;19933;-84
2023/03/09 00:59:16;;;;;;;;;;;1.30;99.90;;;;;;4975562;28;19933;-84
2023/03/09 01:01:41;;;;;;;;;;;1.30;99.90;;;;;;4974343;28;20293;-85
2023/03/09 01:04:07;;;;;;;;;;;1.30;99.90;;;;;;4974781;28;20373;-84
2023/03/09 01:06:32;;;;;;;;;;;3.20;99.90;;;;;;4974414;28;19926;-84
2023/03/09 01:08:58;;;;;;;;;;;1.20;99.90;;;;;;4974778;28;19977;-84
2023/03/09 01:11:24;;;;;;;;;;;1.20;99.90;;;;;;4969471;28;19926;-84
2023/03/09 01:13:51;;;;;;;;;;;1.20;99.90;;;;;;4965789;28;19926;-84
2023/03/09 01:16:16;;;;;;;;;;;1.90;99.90;;;;;;4964906;28;19930;-84
2023/03/09 01:18:42;;;;;;;;;;;3.00;99.90;;;;;;4974381;28;19930;-84
2023/03/09 01:21:10;;;;;;;;;;;1.10;99.90;;;;;;4974562;28;19926;-83
2023/03/09 01:23:36;;;;;;;;;;;1.00;99.90;;;;;;4973901;28;19926;-83
2023/03/09 01:26:02;;;;;;;;;;;1.80;99.90;;;;;;4974947;28;19926;-83
2023/03/09 01:28:28;;;;;;;;;;;2.60;99.90;;;;;;4969412;28;19949;-83
2023/03/09 01:30:53;;;;;;;;;;;0.90;99.90;;;;;;4964494;28;19926;-83
2023/03/09 01:33:19;;;;;;;;;;;0.90;99.90;;;;;;4964965;28;20370;-84
2023/03/09 01:35:44;;;;;;;;;;;0.80;99.90;;;;;;4965535;28;20436;-82
2023/03/09 01:38:10;;;;;;;;;;;0.80;99.90;;;;;;4961249;28;20013;-83
2023/03/09 01:40:36;;;;;;;;;;;0.80;99.90;;;;;;4966658;28;20382;-82
2023/03/09 01:43:21;;;;;;;;;;;0.70;99.90;;;;;;4975778;28;20294;-84
2023/03/09 01:45:47;;;;;;;;;;;0.60;99.90;;;;;;4976921;28;20330;-84
2023/03/09 01:48:12;;;;;;;;;;;0.70;99.90;;;;;;4975347;28;19926;-83
2023/03/09 01:50:38;;;;;;;;;;;0.60;99.90;;;;;;4974007;28;20295;-83
2023/03/09 01:53:06;;;;;;;;;;;0.60;99.90;;;;;;4973763;28;19974;-83
2023/03/09 01:55:34;;;;;;;;;;;0.60;99.90;;;;;;4964519;28;20338;-83
2023/03/09 01:58:01;;;;;;;;;;;0.70;99.90;;;;;;4974231;28;19926;-83
2023/03/09 02:00:27;;;;;;;;;;;0.60;99.90;;;;;;4972863;28;19926;-83
2023/03/09 02:02:56;;;;;;;;;;;0.60;99.90;;;;;;4965020;28;19930;-83
2023/03/09 02:05:32;;;;;;;;;;;0.60;99.90;;;;;;4972872;28;19961;-83
2023/03/09 02:07:59;;;;;;;;;;;0.70;99.90;;;;;;4963753;28;20385;-84
2023/03/09 02:10:33;;;;;;;;;;;0.70;99.90;;;;;;4973536;28;19969;-84
2023/03/09 02:13:01;;;;;;;;;;;0.70;99.90;;;;;;4972966;28;19926;-83
2023/03/09 02:15:27;;;;;;;;;;;0.40;99.90;;;;;;4973193;28;19933;-84
2023/03/09 02:17:52;;;;;;;;;;;3.30;99.90;;;;;;4973740;28;19922;-83
2023/03/09 02:20:21;;;;;;;;;;;0.70;99.90;;;;;;4963926;28;19926;-84
2023/03/09 02:22:47;;;;;;;;;;;0.80;99.90;;;;;;4974089;28;19922;-84
2023/03/09 02:25:23;;;;;;;;;;;0.80;99.90;;;;;;4974039;28;19933;-85
2023/03/09 02:27:50;;;;;;;;;;;0.80;99.90;;;;;;4970828;28;19926;-85
2023/03/09 02:30:16;;;;;;;;;;;0.80;99.90;;;;;;4973596;28;19965;-85
2023/03/09 02:32:41;;;;;;;;;;;0.80;99.90;;;;;;4973209;28;19977;-84
2023/03/09 02:35:09;;;;;;;;;;;0.80;99.90;;;;;;4963914;28;19926;-84
2023/03/09 02:37:36;;;;;;;;;;;0.90;99.90;;;;;;4972781;28;20382;-84
2023/03/09 02:40:16;;;;;;;;;;;0.90;99.90;;;;;;4964476;28;19926;-84
2023/03/09 02:42:43;;;;;;;;;;;0.90;99.90;;;;;;4969404;28;19933;-85
2023/03/09 02:45:10;;;;;;;;;;;0.80;99.90;;;;;;4967216;28;19976;-85
2023/03/09 02:47:38;;;;;;;;;;;0.90;99.90;;;;;;4971621;28;19937;-84
2023/03/09 02:50:05;;;;;;;;;;;0.90;99.90;;;;;;4964438;28;19933;-85
2023/03/09 02:52:32;;;;;;;;;;;0.90;99.90;;;;;;4963562;28;19930;-85
2023/03/09 02:54:58;;;;;;;;;;;0.90;99.90;;;;;;4964070;28;19934;-84
2023/03/09 02:57:23;;;;;;;;;;;0.90;99.90;;;;;;4972615;28;19926;-84
2023/03/09 02:59:49;;;;;;;;;;;2.00;99.90;;;;;;4972966;28;19933;-84
2023/03/09 03:02:14;;;;;;;;;;;0.90;99.90;;;;;;4972674;28;19980;-84
2023/03/09 03:04:43;;;;;;;;;;;0.90;99.90;;;;;;4961178;28;19926;-84
2023/03/09 03:07:08;;;;;;;;;;;0.90;99.90;;;;;;4973228;28;19926;-84
2023/03/09 03:09:34;;;;;;;;;;;0.90;99.90;;;;;;4963494;28;19936;-84
2023/03/09 03:11:59;;;;;;;;;;;0.90;99.90;;;;;;4973108;28;20024;-84
2023/03/09 03:14:25;;;;;;;;;;;0.90;99.90;;;;;;4972668;28;19930;-84
2023/03/09 03:16:50;;;;;;;;;;;0.90;99.90;;;;;;4964358;28;19977;-84
2023/03/09 03:19:16;;;;;;;;;;;1.10;99.90;;;;;;4973313;28;20009;-84
2023/03/09 03:21:41;;;;;;;;;;;0.90;99.90;;;;;;4973148;28;20100;-84
2023/03/09 03:24:07;;;;;;;;;;;0.90;99.90;;;;;;4971760;28;20345;-84
2023/03/09 03:26:32;;;;;;;;;;;0.90;99.90;;;;;;4967379;28;19934;-84
2023/03/09 03:28:58;;;;;;;;;;;0.90;99.90;;;;;;4963953;28;20393;-84
2023/03/09 03:31:23;;;;;;;;;;;0.90;99.90;;;;;;4971829;28;19985;-84
2023/03/09 03:33:49;;;;;;;;;;;0.90;99.90;;;;;;4963951;28;19926;-85
2023/03/09 03:36:14;;;;;;;;;;;2.40;99.90;;;;;;4968520;28;19937;-84
2023/03/09 03:38:40;;;;;;;;;;;0.90;99.90;;;;;;4962490;28;19926;-84
2023/03/09 03:41:06;;;;;;;;;;;0.90;99.90;;;;;;4972823;28;19926;-84
2023/03/09 03:43:31;;;;;;;;;;;0.90;99.90;;;;;;4972844;28;19927;-84
2023/03/09 03:45:57;;;;;;;;;;;0.80;99.90;;;;;;4965923;28;19934;-85
2023/03/09 03:48:22;;;;;;;;;;;0.80;99.90;;;;;;4963141;28;19927;-84
2023/03/09 03:50:48;;;;;;;;;;;1.10;99.90;;;;;;4963130;28;19934;-84
2023/03/09 03:53:13;;;;;;;;;;;0.90;99.90;;;;;;4973028;28;20433;-85
2023/03/09 03:55:39;;;;;;;;;;;1.30;99.90;;;;;;4975683;28;19977;-84
2023/03/09 03:58:07;;;;;;;;;;;0.80;99.90;;;;;;4972123;28;19927;-84
2023/03/09 04:00:33;;;;;;;;;;;-1.40;99.90;;;;;;4975835;28;20432;-84
2023/03/09 04:02:58;;;;;;;;;;;0.80;99.90;;;;;;4976439;28;19926;-84
2023/03/09 04:05:24;;;;;;;;;;;3.20;99.90;;;;;;4978218;28;19926;-84
2023/03/09 04:07:51;;;;;;;;;;;0.60;99.90;;;;;;4980946;28;19926;-84
2023/03/09 04:10:16;;;;;;;;;;;0.60;99.90;;;;;;4966746;28;19957;-84
2023/03/09 04:12:42;;;;;;;;;;;0.60;99.90;;;;;;4975115;28;19968;-84
2023/03/09 04:15:08;;;;;;;;;;;1.60;99.90;;;;;;4968150;28;20293;-84
2023/03/09 04:17:33;;;;;;;;;;;0.50;99.90;;;;;;4966569;28;20342;-84
2023/03/09 04:20:05;;;;;;;;;;;2.30;99.90;;;;;;4967177;28;19949;-84
2023/03/09 04:22:31;;;;;;;;;;;1.40;99.90;;;;;;4975688;28;19936;-84
2023/03/09 04:24:56;;;;;;;;;;;0.40;99.90;;;;;;4975511;28;20005;-83
2023/03/09 04:27:22;;;;;;;;;;;0.50;99.90;;;;;;4965284;28;20370;-84
2023/03/09 04:29:47;;;;;;;;;;;0.50;99.90;;;;;;4975488;28;20448;-84
2023/03/09 04:32:13;;;;;;;;;;;0.50;99.90;;;;;;4975920;28;20008;-84
2023/03/09 04:34:38;;;;;;;;;;;0.50;99.90;;;;;;4974659;28;20390;-84
2023/03/09 04:37:04;;;;;;;;;;;0.50;99.90;;;;;;4966258;28;19936;-85
2023/03/09 04:39:29;;;;;;;;;;;0.50;99.90;;;;;;4969656;28;20327;-84
2023/03/09 04:41:55;;;;;;;;;;;0.50;99.90;;;;;;4963097;28;20356;-84
2023/03/09 04:44:20;;;;;;;;;;;0.60;99.90;;;;;;4965937;28;19926;-84
2023/03/09 04:46:46;;;;;;;;;;;0.60;99.90;;;;;;4975901;28;19934;-84
2023/03/09 04:49:11;;;;;;;;;;;0.60;99.90;;;;;;4974200;28;19973;-84
2023/03/09 04:51:37;;;;;;;;;;;2.80;99.90;;;;;;4965603;28;19938;-84
2023/03/09 04:54:02;;;;;;;;;;;0.60;99.90;;;;;;4974208;28;19926;-84
2023/03/09 04:56:28;;;;;;;;;;;0.60;99.90;;;;;;4966208;28;20022;-84
2023/03/09 04:58:55;;;;;;;;;;;0.60;99.90;;;;;;4968903;28;19926;-85
2023/03/09 05:01:20;;;;;;;;;;;0.60;99.90;;;;;;4965616;28;19930;-84
2023/03/09 05:03:46;;;;;;;;;;;1.40;99.90;;;;;;4975172;28;19926;-84
2023/03/09 05:06:12;;;;;;;;;;;0.60;99.90;;;;;;4974667;28;19973;-85
2023/03/09 05:08:37;;;;;;;;;;;0.70;99.90;;;;;;4967981;28;19981;-84
2023/03/09 05:11:03;;;;;;;;;;;0.70;99.90;;;;;;4974958;28;19926;-84
2023/03/09 05:13:28;;;;;;;;;;;0.70;99.90;;;;;;4964978;28;19926;-84
2023/03/09 05:15:54;;;;;;;;;;;1.00;99.90;;;;;;4975139;28;19926;-85
2023/03/09 05:18:20;;;;;;;;;;;3.20;99.90;;;;;;4974947;28;20293;-84
2023/03/09 05:20:45;;;;;;;;;;;1.00;99.90;;;;;;4975693;28;19930;-89
2023/03/09 05:23:11;;;;;;;;;;;0.70;99.90;;;;;;4977079;28;19969;-87
2023/03/09 05:25:36;;;;;;;;;;;2.90;99.90;;;;;;4965006;28;20012;-86
2023/03/09 05:28:04;;;;;;;;;;;0.70;99.90;;;;;;4974706;28;20374;-86
2023/03/09 05:30:30;;;;;;;;;;;0.70;99.90;;;;;;4973693;28;20391;-85
2023/03/09 05:32:56;;;;;;;;;;;3.00;99.90;;;;;;4974930;28;19969;-86
2023/03/09 05:35:21;;;;;;;;;;;0.70;99.90;;;;;;4974471;28;20051;-86
2023/03/09 05:37:53;;;;;;;;;;;0.70;99.90;;;;;;4966902;28;19926;-86
2023/03/09 05:40:22;;;;;;;;;;;0.60;99.90;;;;;;4967377;28;19926;-86
2023/03/09 05:42:47;;;;;;;;;;;0.70;99.90;;;;;;4974620;28;20293;-86
2023/03/09 05:45:13;;;;;;;;;;;0.60;99.90;;;;;;4964940;28;19971;-86
2023/03/09 05:47:39;;;;;;;;;;;0.60;99.90;;;;;;4973422;28;19930;-86
2023/03/09 05:50:05;;;;;;;;;;;0.60;99.90;;;;;;4974554;28;20017;-80
2023/03/09 05:52:31;;;;;;;;;;;0.60;99.90;;;;;;4973116;28;20016;-81
2023/03/09 05:54:56;;;;;;;;;;;0.50;99.90;;;;;;4974055;28;21070;-81
2023/03/09 05:57:22;;;;;;;;;;;1.20;99.90;;;;;;4964344;28;20394;-81
2023/03/09 05:59:47;;;;;;;;;;;0.50;99.90;;;;;;4972060;28;20401;-78
2023/03/09 06:02:13;;;;;;;;;;;0.50;99.90;;;;;;4967103;28;20018;-81
2023/03/09 06:04:38;;;;;;;;;;;2.30;99.90;;;;;;4966422;28;20029;-81
2023/03/09 06:07:04;;;;;;;;;;;0.40;99.90;;;;;;4972842;28;19980;-80
2023/03/09 06:09:29;;;;;;;;;;;0.40;99.90;;;;;;4973446;28;19922;-78
2023/03/09 06:11:55;;;;;;;;;;;0.40;99.90;;;;;;4972990;28;19934;-80
2023/03/09 06:14:23;;;;;;;;;;;0.40;99.90;;;;;;4960810;28;20012;-79
2023/03/09 06:16:48;;;;;;;;;;;0.30;99.90;;;;;;4964067;28;19980;-81
2023/03/09 06:19:14;;;;;;;;;;;1.90;99.90;;;;;;4973544;28;19930;-82
2023/03/09 06:21:40;;;;;;;;;;;0.30;99.90;;;;;;4973386;28;19926;-88
2023/03/09 06:24:05;;;;;;;;;;;0.30;99.90;;;;;;4970834;28;19930;-79
2023/03/09 06:26:31;;;;;;;;;;;0.30;99.90;;;;;;4980499;28;19989;-82
2023/03/09 06:28:56;;;;;;;;;;;0.20;99.90;;;;;;4975941;28;19929;-84
2023/03/09 06:31:22;;;;;;;;;;;2.50;99.90;;;;;;4970148;28;19933;-81
2023/03/09 06:33:47;;;;;;;;;;;2.20;99.90;;;;;;4967266;28;19933;-83
2023/03/09 06:36:14;;;;;;;;;;;0.20;99.90;;;;;;4969742;28;19924;-82
2023/03/09 06:38:40;;;;;;;;;;;0.10;99.90;;;;;;4967685;28;19941;-82
2023/03/09 06:41:06;;;;;;;;;;;0.10;99.90;;;;;;4963503;28;19926;-82
2023/03/09 06:43:32;;;;;;;;;;;0.10;99.90;;;;;;4961982;28;20115;-81
2023/03/09 06:45:57;;;;;;;;;;;0.10;99.90;;;;;;4973061;28;19933;-82
2023/03/09 06:48:23;;;;;;;;;;;0.10;99.90;;;;;;4970187;28;19978;-83
2023/03/09 06:50:48;;;;;;;;;;;1.60;99.90;;;;;;4965926;28;19927;-82
2023/03/09 06:53:14;;;;;;;;;;;2.10;99.90;;;;;;4969398;28;19930;-81
2023/03/09 06:55:40;;;;;;;;;;;0.10;99.90;;;;;;4965452;28;20310;-82
2023/03/09 06:58:05;;;;;;;;;;;0.30;99.90;;;;;;4965449;28;19930;-82
2023/03/09 07:00:31;;;;;;;;;;;2.70;99.90;;;;;;4972557;28;19930;-82
2023/03/09 07:02:57;;;;;;;;;;;0.30;99.90;;;;;;4969051;28;19981;-82
2023/03/09 07:05:22;;;;;;;;;;;0.50;99.90;;;;;;4969009;28;20017;-81
2023/03/09 07:07:48;;;;;;;;;;;0.60;99.90;;;;;;4967306;28;19977;-82
2023/03/09 07:10:14;;;;;;;;;;;2.70;99.90;;;;;;4964486;28;19977;-82
2023/03/09 07:12:39;;;;;;;;;;;0.70;99.90;;;;;;4968564;28;19930;-81
2023/03/09 07:15:06;;;;;;;;;;;0.70;99.90;;;;;;4973502;28;19930;-81
2023/03/09 07:17:32;;;;;;;;;;;0.70;99.90;;;;;;4967776;28;20329;-82
2023/03/09 07:19:58;;;;;;;;;;;0.80;99.90;;;;;;4966935;28;19933;-81
2023/03/09 07:22:24;;;;;;;;;;;0.90;99.90;;;;;;4971425;28;19935;-81
2023/03/09 07:24:49;;;;;;;;;;;1.00;99.90;;;;;;4969250;28;19980;-82
2023/03/09 07:27:15;;;;;;;;;;;1.10;99.90;;;;;;4972469;28;19963;-82
2023/03/09 07:29:41;;;;;;;;;;;1.70;99.90;;;;;;4969438;28;19926;-83
2023/03/09 07:32:07;;;;;;;;;;;1.40;99.90;;;;;;4973386;28;19937;-83
2023/03/09 07:34:33;;;;;;;;;;;1.60;99.90;;;;;;4969279;28;20398;-83
2023/03/09 07:36:59;;;;;;;;;;;1.70;99.90;;;;;;4970503;28;20301;-82
2023/03/09 07:39:25;;;;;;;;;;;1.80;99.90;;;;;;4966514;28;19981;-82
2023/03/09 07:41:50;;;;;;;;;;;1.80;99.90;;;;;;4975129;28;20321;-83
2023/03/09 07:44:16;;;;;;;;;;;1.90;99.90;;;;;;4972895;28;19945;-82
2023/03/09 07:46:41;;;;;;;;;;;4.00;99.90;;;;;;4969170;28;19930;-82
2023/03/09 07:49:07;;;;;;;;;;;4.30;99.90;;;;;;4956560;28;19926;-82
2023/03/09 07:51:33;;;;;;;;;;;2.20;99.90;;;;;;4960347;28;19926;-82
2023/03/09 07:53:59;;;;;;;;;;;3.30;99.90;;;;;;4974710;28;19962;-84
2023/03/09 07:56:25;;;;;;;;;;;2.40;99.90;;;;;;4976296;28;20369;-84
2023/03/09 07:58:51;;;;;;;;;;;2.60;99.90;;;;;;4975475;28;19957;-82
2023/03/09 08:01:17;;;;;;;;;;;3.30;99.90;;;;;;4968157;28;20313;-83
2023/03/09 08:03:46;;;;;;;;;;;3.00;99.90;;;;;;4973825;28;19933;-85
2023/03/09 08:06:12;;;;;;;;;;;3.40;99.90;;;;;;4971791;28;20373;-82
2023/03/09 08:08:38;;;;;;;;;;;5.60;99.90;;;;;;4975977;28;20099;-92
2023/03/09 08:11:04;;;;;;;;;;;7.00;99.90;;;;;;4975055;28;19933;-86
2023/03/09 08:13:30;;;;;;;;;;;5.10;99.90;;;;;;4970256;28;19926;-83
2023/03/09 08:15:58;;;;;;;;;;;6.80;99.90;;;;;;4975896;28;19937;-83
2023/03/09 08:18:24;;;;;;;;;;;5.90;99.90;;;;;;4974365;28;19926;-80
2023/03/09 08:20:49;;;;;;;;;;;6.40;99.90;;;;;;4968878;28;20379;-82
2023/03/09 08:23:15;;;;;;;;;;;8.40;99.90;;;;;;4969613;28;19952;-85
2023/03/09 08:25:41;;;;;;;;;;;8.90;99.90;;;;;;4969092;28;20411;-90
2023/03/09 08:28:06;;;;;;;;;;;7.10;99.90;;;;;;4970200;28;19982;-90
2023/03/09 08:30:32;;;;;;;;;;;7.60;99.90;;;;;;4968818;28;19931;-88
2023/03/09 08:32:58;;;;;;;;;;;8.80;99.90;;;;;;4976657;28;19926;-88
2023/03/09 08:35:27;;;;;;;;;;;8.50;99.90;;;;;;4971607;28;19933;-89
2023/03/09 08:37:52;;;;;;;;;;;9.20;99.90;;;;;;4976060;28;19969;-89
2023/03/09 08:40:18;;;;;;;;;;;11.40;99.90;;;;;;4976045;28;19996;-89
2023/03/09 08:42:43;;;;;;;;;;;9.90;99.90;;;;;;4972185;28;20002;-89
2023/03/09 08:45:09;;;;;;;;;;;10.30;99.90;;;;;;4958516;28;19997;-87
2023/03/09 08:47:35;;;;;;;;;;;10.70;97.90;;;;;;4966522;28;19926;-87
2023/03/09 08:50:00;;;;;;;;;;;11.10;96.50;;;;;;4983001;28;19926;-87
2023/03/09 08:52:26;;;;;;;;;;;11.60;96.50;;;;;;4980146;28;19937;-87
2023/03/09 08:54:51;;;;;;;;;;;12.00;95.50;;;;;;4975102;28;19926;-85
2023/03/09 08:57:20;;;;;;;;;;;12.30;94.20;;;;;;4974788;28;19934;-86
2023/03/09 08:59:48;;;;;;;;;;;12.70;94.00;;;;;;4973598;28;19930;-88
2023/03/09 09:02:14;;;;;;;;;;;12.60;93.20;;;;;;4972095;28;19934;-87
2023/03/09 09:04:41;;;;;;;;;;;13.00;94.10;;;;;;4969947;28;19933;-81
2023/03/09 09:07:07;;;;;;;;;;;12.90;92.90;;;;;;4975029;28;19926;-86
2023/03/09 09:09:33;;;;;;;;;;;12.90;91.80;;;;;;4964892;28;19933;-88
2023/03/09 09:11:59;;;;;;;;;;;13.30;91.00;;;;;;4967155;28;19926;-87
2023/03/09 09:14:24;;;;;;;;;;;13.00;91.70;;;;;;4961009;28;19930;-85
2023/03/09 09:16:50;;;;;;;;;;;12.50;91.80;;;;;;4965627;28;19926;-84
2023/03/09 09:19:16;;;;;;;;;;;12.70;92.70;;;;;;4975124;28;20301;-84
2023/03/09 09:21:42;;;;;;;;;;;12.00;92.20;;;;;;4964779;28;19926;-85
2023/03/09 09:24:08;;;;;;;;;;;11.50;92.50;;;;;;4974292;28;20039;-84
2023/03/09 09:26:34;;;;;;;;;;;11.30;93.00;;;;;;4966281;28;20044;-85
2023/03/09 09:29:01;;;;;;;;;;;11.60;94.50;;;;;;4974495;28;20293;-87
2023/03/09 09:31:29;;;;;;;;;;;11.90;93.10;;;;;;4965348;28;19970;-83
2023/03/09 09:33:56;;;;;;;;;;;11.90;92.70;;;;;;4975036;28;19930;-81
2023/03/09 09:36:22;;;;;;;;;;;11.70;92.40;;;;;;4973517;28;19929;-81
2023/03/09 09:38:47;;;;;;;;;;;11.40;93.10;;;;;;4965219;28;20345;-81
2023/03/09 09:41:23;;;;;;;;;;;11.80;93.20;;;;;;4965161;28;19926;-80
2023/03/09 09:43:50;;;;;;;;;;;12.10;93.10;;;;;;4964079;28;20365;-79
2023/03/09 09:46:17;;;;;;;;;;;12.10;92.70;;;;;;4964998;28;19930;-84
2023/03/09 09:48:45;;;;;;;;;;;12.80;92.00;;;;;;4973797;28;20210;-84
2023/03/09 09:51:15;;;;;;;;;;;12.50;91.60;;;;;;4963394;28;19926;-84
2023/03/09 09:53:56;;;;;;;;;;;12.30;91.50;;;;;;4964675;28;19933;-80
2023/03/09 09:56:26;;;;;;;;;;;11.90;91.50;;;;;;4965069;28;19926;-84
2023/03/09 09:59:06;;;;;;;;;;;11.90;93.00;;;;;;4957065;28;20033;-82
2023/03/09 10:01:43;;;;;;;;;;;12.30;92.20;;;;;;4969464;28;19933;-86
2023/03/09 10:04:14;;;;;;;;;;;13.00;91.20;;;;;;4963672;28;19926;-83
2023/03/09 10:06:40;;;;;;;;;;;13.40;91.40;;;;;;4966393;28;19932;-82
2023/03/09 10:09:10;;;;;;;;;;;12.90;90.80;;;;;;4973721;28;19926;-85
2023/03/09 10:11:39;;;;;;;;;;;13.30;90.00;;;;;;4972578;28;19977;-85
2023/03/09 10:14:05;;;;;;;;;;;13.70;89.40;;;;;;4967865;28;19926;-82
2023/03/09 10:16:35;;;;;;;;;;;13.40;90.10;;;;;;4968095;28;19926;-82
2023/03/09 10:19:02;;;;;;;;;;;13.40;90.70;;;;;;4972620;28;20417;-85
2023/03/09 10:21:31;;;;;;;;;;;12.50;90.70;;;;;;4964675;28;19926;-86
2023/03/09 10:23:59;;;;;;;;;;;12.00;90.90;;;;;;4964144;28;20286;-84
2023/03/09 10:26:42;;;;;;;;;;;12.30;91.00;;;;;;4972736;28;20013;-83
2023/03/09 10:29:14;;;;;;;;;;;11.60;91.70;;;;;;4972606;28;19970;-83
2023/03/09 10:31:45;;;;;;;;;;;10.70;91.80;;;;;;4972631;28;19925;-82
2023/03/09 10:34:19;;;;;;;;;;;10.10;93.00;;;;;;4967713;28;19996;-79
2023/03/09 10:36:57;;;;;;;;;;;10.20;94.70;;;;;;4964639;28;20271;-82
2023/03/09 10:39:22;;;;;;;;;;;10.30;94.50;;;;;;4962829;28;19945;-82
2023/03/09 10:41:50;;;;;;;;;;;10.30;94.50;;;;;;4963924;28;20336;-82
2023/03/09 10:44:18;;;;;;;;;;;10.30;93.40;;;;;;4969826;28;19937;-81
2023/03/09 10:47:00;;;;;;;;;;;11.00;94.40;;;;;;4964719;28;20432;-79
2023/03/09 10:49:26;;;;;;;;;;;9.30;93.90;;;;;;4967336;28;19932;-85
2023/03/09 10:52:00;;;;;;;;;;;8.90;94.70;;;;;;4973258;28;19932;-86
2023/03/09 10:54:39;;;;;;;;;;;8.60;94.80;;;;;;4963150;28;19922;-84
2023/03/09 10:57:21;;;;;;;;;;;8.60;97.00;;;;;;4972759;28;20091;-84
2023/03/09 10:59:57;;;;;;;;;;;8.70;96.20;;;;;;4968838;28;19973;-84
2023/03/09 11:02:28;;;;;;;;;;;8.80;96.20;;;;;;4971636;28;19922;-77
2023/03/09 11:04:54;;;;;;;;;;;8.70;96.50;;;;;;4976889;28;19927;-81
2023/03/09 11:07:22;;;;;;;;;;;9.70;96.10;;;;;;4966693;28;19941;-79
2023/03/09 11:09:52;;;;;;;;;;;8.90;95.60;;;;;;4970043;28;19926;-87
2023/03/09 11:12:34;;;;;;;;;;;9.10;97.60;;;;;;4967895;28;19926;-81
2023/03/09 11:15:01;;;;;;;;;;;8.20;97.50;;;;;;4966700;28;20366;-82
2023/03/09 11:17:35;;;;;;;;;;;7.80;97.40;;;;;;4968604;28;19926;-80
2023/03/09 11:20:20;;;;;;;;;;;8.00;96.70;;;;;;4963158;28;19926;-85
2023/03/09 11:22:51;;;;;;;;;;;7.90;97.30;;;;;;4967130;28;19930;-83
2023/03/09 11:25:21;;;;;;;;;;;7.60;98.60;;;;;;4976592;28;20381;-85
2023/03/09 11:27:52;;;;;;;;;;;7.90;97.70;;;;;;4976966;28;19985;-84
2023/03/09 11:30:18;;;;;;;;;;;7.40;99.20;;;;;;4969376;28;19922;-85
2023/03/09 11:32:44;;;;;;;;;;;7.30;99.90;;;;;;4976638;28;19948;-84
2023/03/09 11:35:13;;;;;;;;;;;6.80;99.90;;;;;;4976241;28;20740;-83
2023/03/09 11:37:44;;;;;;;;;;;6.60;99.90;;;;;;4973356;28;19930;-84
2023/03/09 11:40:10;;;;;;;;;;;6.40;99.60;;;;;;4969092;28;19933;-84
2023/03/09 11:42:37;;;;;;;;;;;6.30;99.90;;;;;;4966464;28;20012;-84
2023/03/09 11:45:03;;;;;;;;;;;6.90;99.90;;;;;;4976394;28;19930;-83
2023/03/09 11:47:58;;;;;;;;;;;6.50;99.90;;;;;;4966977;28;20359;-83
2023/03/09 11:50:26;;;;;;;;;;;6.50;99.90;;;;;;4905289;28;20454;-85
2023/03/09 11:53:03;;;;;;;;;;;6.80;99.90;;;;;;4952107;28;19980;-85
2023/03/09 11:55:35;;;;;;;;;;;7.00;99.90;;;;;;4966982;28;19926;-85
2023/03/09 11:58:03;;;;;;;;;;;7.10;99.90;;;;;;4967810;28;19926;-86
2023/03/09 12:00:29;;;;;;;;;;;7.50;99.90;;;;;;4975397;28;19926;-85
2023/03/09 12:03:01;;;;;;;;;;;7.10;99.90;;;;;;4975072;28;19934;-86
2023/03/09 12:05:31;;;;;;;;;;;7.80;99.90;;;;;;4967125;28;20381;-86
2023/03/09 12:08:03;;;;;;;;;;;7.70;99.90;;;;;;4964177;28;19934;-87
2023/03/09 12:10:34;;;;;;;;;;;6.90;99.90;;;;;;4975190;28;19929;-84
2023/03/09 12:13:03;;;;;;;;;;;7.00;99.90;;;;;;4971020;28;19926;-84
2023/03/09 12:15:34;;;;;;;;;;;7.90;99.90;;;;;;4968605;28;19930;-83
2023/03/09 12:18:01;;;;;;;;;;;6.80;99.90;;;;;;4970796;28;20040;-84
2023/03/09 12:20:47;;;;;;;;;;;7.60;99.90;;;;;;4975653;28;19926;-86
2023/03/09 12:23:31;;;;;;;;;;;8.00;99.90;;;;;;4968054;28;19942;-85
2023/03/09 12:25:57;;;;;;;;;;;6.70;99.90;;;;;;4962512;28;19930;-86
2023/03/09 12:28:23;;;;;;;;;;;6.70;99.90;;;;;;4975224;28;19926;-85
2023/03/09 12:30:53;;;;;;;;;;;6.90;99.90;;;;;;4968453;28;19926;-85
2023/03/09 12:33:37;;;;;;;;;;;6.50;99.90;;;;;;4974635;28;20005;-85
2023/03/09 12:36:03;;;;;;;;;;;6.60;99.90;;;;;;4968740;28;20408;-85
2023/03/09 12:38:29;;;;;;;;;;;6.60;99.90;;;;;;4969653;28;19926;-86
2023/03/09 12:40:54;;;;;;;;;;;7.20;99.90;;;;;;4973567;28;19933;-87
2023/03/09 12:43:21;;;;;;;;;;;7.40;99.90;;;;;;4984852;28;19926;-88
2023/03/09 12:45:47;;;;;;;;;;;7.90;99.90;;;;;;4974678;28;19930;-88
2023/03/09 12:48:42;;;;;;;;;;;7.90;99.90;;;;;;4966127;28;19980;-88
2023/03/09 12:51:14;;;;;;;;;;;6.60;99.90;;;;;;4948313;28;19926;-87
2023/03/09 12:54:09;;;;;;;;;;;6.60;99.90;;;;;;4965505;28;20334;-88
2023/03/09 12:56:34;;;;;;;;;;;6.60;99.90;;;;;;4959407;28;20345;-88
2023/03/09 12:59:07;;;;;;;;;;;6.60;99.90;;;;;;4974749;28;20009;-87
2023/03/09 13:01:33;;;;;;;;;;;6.80;99.90;;;;;;4966769;28;20020;-81
2023/03/09 13:04:12;;;;;;;;;;;6.50;99.90;;;;;;4974657;28;19926;-75
2023/03/09 13:06:41;;;;;;;;;;;6.40;99.90;;;;;;4971891;28;19926;-80
2023/03/09 13:09:13;;;;;;;;;;;6.60;99.90;;;;;;4965955;28;19927;-80
2023/03/09 13:11:42;;;;;;;;;;;6.40;99.90;;;;;;4974086;28;19930;-81
2023/03/09 13:14:11;;;;;;;;;;;6.40;99.90;;;;;;4973817;28;19926;-82
2023/03/09 13:16:49;;;;;;;;;;;8.10;99.90;;;;;;4964730;28;19992;-83
2023/03/09 13:19:23;;;;;;;;;;;6.30;99.90;;;;;;4965814;28;19937;-83
2023/03/09 13:21:55;;;;;;;;;;;6.40;99.90;;;;;;4973677;28;19934;-82
2023/03/09 13:24:32;;;;;;;;;;;6.10;99.90;;;;;;4970759;28;19949;-80
2023/03/09 13:27:26;;;;;;;;;;;6.00;99.90;;;;;;4973469;28;19945;-81
2023/03/09 13:29:56;;;;;;;;;;;5.90;99.90;;;;;;4969231;28;19926;-81
2023/03/09 13:32:31;;;;;;;;;;;6.10;99.90;;;;;;4968159;28;19934;-79
2023/03/09 13:35:11;;;;;;;;;;;5.80;99.90;;;;;;4970436;28;19969;-86
2023/03/09 13:37:39;;;;;;;;;;;5.80;99.90;;;;;;4967849;28;19930;-80
2023/03/09 13:40:06;;;;;;;;;;;5.80;99.90;;;;;;4974315;28;19926;-80
2023/03/09 13:42:33;;;;;;;;;;;5.80;99.90;;;;;;4963928;28;20325;-81
2023/03/09 13:44:59;;;;;;;;;;;5.90;99.90;;;;;;4963384;28;19973;-81
2023/03/09 13:47:26;;;;;;;;;;;5.80;99.90;;;;;;4973999;28;20322;-80
2023/03/09 13:49:53;;;;;;;;;;;5.80;99.90;;;;;;4965991;28;20289;-80
2023/03/09 13:52:19;;;;;;;;;;;7.00;99.90;;;;;;4968360;28;19933;-81
2023/03/09 13:54:47;;;;;;;;;;;5.70;99.90;;;;;;4973119;28;19926;-82
2023/03/09 13:57:14;;;;;;;;;;;5.60;99.90;;;;;;4964984;28;19927;-82
2023/03/09 13:59:56;;;;;;;;;;;5.80;99.90;;;;;;4964238;28;19937;-82
2023/03/09 14:02:23;;;;;;;;;;;5.60;99.90;;;;;;4964580;28;20278;-82
2023/03/09 14:04:55;;;;;;;;;;;7.70;99.90;;;;;;4972496;28;19980;-82
2023/03/09 14:07:22;;;;;;;;;;;5.60;99.90;;;;;;4965166;28;19926;-82
2023/03/09 14:09:53;;;;;;;;;;;6.00;99.90;;;;;;4972603;28;19922;-81
2023/03/09 14:12:30;;;;;;;;;;;5.60;99.90;;;;;;4968944;28;19972;-82
2023/03/09 14:14:59;;;;;;;;;;;5.60;99.90;;;;;;4968229;28;19938;-82
2023/03/09 14:17:25;;;;;;;;;;;5.60;99.90;;;;;;4968207;28;19961;-82
2023/03/09 14:19:52;;;;;;;;;;;6.30;99.90;;;;;;4961445;28;19973;-83
2023/03/09 14:22:19;;;;;;;;;;;6.40;99.90;;;;;;4967171;28;19926;-83
2023/03/09 14:24:45;;;;;;;;;;;4.10;99.90;;;;;;4970640;28;19980;-83
2023/03/09 14:27:43;;;;;;;;;;;6.30;99.90;;;;;;4965669;28;20329;-82
2023/03/09 14:30:26;;;;;;;;;;;5.50;99.90;;;;;;4902909;28;19934;-83
2023/03/09 14:32:56;;;;;;;;;;;5.50;99.90;;;;;;4961229;28;19954;-83